sensor_id;sensor_type;location;lat;lon;timestamp;pressure;altitude;pressure_sealevel;temperature;humidity
77749;BME280;66938;52.084;5.228;2023-06-04T00:00:48;102378.0;;;14.26;59.08
77749;BME280;66938;52.084;5.228;2023-06-04T00:04:01;102375.0;;;14.2;59.17
77749;BME280;66938;52.084;5.228;2023-06-04T00:05:37;102376.0;;;14.22;58.7
77749;BME280;66938;52.084;5.228;2023-06-04T00:07:14;102377.0;;;14.22;58.99
77749;BME280;66938;52.084;5.228;2023-06-04T00:08:50;102375.0;;;14.23;59.28
77749;BME280;66938;52.084;5.228;2023-06-04T00:12:02;102375.0;;;14.12;58.87
77749;BME280;66938;52.084;5.228;2023-06-04T00:13:39;102377.0;;;14.08;59.34
77749;BME280;66938;52.084;5.228;2023-06-04T00:15:15;102378.0;;;14.05;58.81
77749;BME280;66938;52.084;5.228;2023-06-04T00:18:28;102374.0;;;14.1;59.15
77749;BME280;66938;52.084;5.228;2023-06-04T00:20:05;102377.0;;;14.04;59.49
77749;BME280;66938;52.084;5.228;2023-06-04T00:21:41;102373.0;;;14.02;59.79
77749;BME280;66938;52.084;5.228;2023-06-04T00:24:54;102375.0;;;14.03;59.84
77749;BME280;66938;52.084;5.228;2023-06-04T00:26:30;102374.0;;;13.96;60.25
77749;BME280;66938;52.084;5.228;2023-06-04T00:28:07;102373.0;;;13.9;60.34
77749;BME280;66938;52.084;5.228;2023-06-04T00:31:19;102371.0;;;13.88;59.65
77749;BME280;66938;52.084;5.228;2023-06-04T00:32:56;102368.0;;;13.92;59.26
77749;BME280;66938;52.084;5.228;2023-06-04T00:34:32;102366.0;;;13.82;60.11
77749;BME280;66938;52.084;5.228;2023-06-04T00:36:08;102366.0;;;13.82;60.46
77749;BME280;66938;52.084;5.228;2023-06-04T00:39:20;102363.0;;;13.8;59.83
77749;BME280;66938;52.084;5.228;2023-06-04T00:40:57;102368.0;;;13.72;60.37
77749;BME280;66938;52.084;5.228;2023-06-04T00:42:33;102370.0;;;13.69;59.97
77749;BME280;66938;52.084;5.228;2023-06-04T00:45:45;102370.0;;;13.65;60.98
77749;BME280;66938;52.084;5.228;2023-06-04T00:47:21;102373.0;;;13.61;60.34
77749;BME280;66938;52.084;5.228;2023-06-04T00:48:57;102373.0;;;13.56;59.85
77749;BME280;66938;52.084;5.228;2023-06-04T00:52:12;102375.0;;;13.53;60.11
77749;BME280;66938;52.084;5.228;2023-06-04T00:53:51;102375.0;;;13.51;60.14
77749;BME280;66938;52.084;5.228;2023-06-04T00:55:27;102372.0;;;13.46;60.45
77749;BME280;66938;52.084;5.228;2023-06-04T00:57:05;102377.0;;;13.43;60.21
77749;BME280;66938;52.084;5.228;2023-06-04T01:00:18;102374.0;;;13.44;60.48
77749;BME280;66938;52.084;5.228;2023-06-04T01:01:58;102375.0;;;13.4;60.97
77749;BME280;66938;52.084;5.228;2023-06-04T01:03:42;102373.0;;;13.4;61.33
77749;BME280;66938;52.084;5.228;2023-06-04T01:05:27;102369.0;;;13.48;60.58
77749;BME280;66938;52.084;5.228;2023-06-04T01:08:44;102372.0;;;13.37;61.91
77749;BME280;66938;52.084;5.228;2023-06-04T01:10:20;102368.0;;;13.31;61.2
77749;BME280;66938;52.084;5.228;2023-06-04T01:11:56;102369.0;;;13.24;61.35
77749;BME280;66938;52.084;5.228;2023-06-04T01:15:10;102370.0;;;13.24;61.22
77749;BME280;66938;52.084;5.228;2023-06-04T01:16:53;102378.0;;;13.19;61.34
77749;BME280;66938;52.084;5.228;2023-06-04T01:18:33;102375.0;;;13.16;61.61
77749;BME280;66938;52.084;5.228;2023-06-04T01:20:18;102371.0;;;13.14;62.04
77749;BME280;66938;52.084;5.228;2023-06-04T01:22:10;102370.0;;;13.09;62.43
77749;BME280;66938;52.084;5.228;2023-06-04T01:25:33;102371.0;;;13.14;62.43
77749;BME280;66938;52.084;5.228;2023-06-04T01:27:10;102368.0;;;13.04;61.86
77749;BME280;66938;52.084;5.228;2023-06-04T01:28:46;102372.0;;;12.97;62.22
77749;BME280;66938;52.084;5.228;2023-06-04T01:32:04;102368.0;;;12.96;62.57
77749;BME280;66938;52.084;5.228;2023-06-04T01:33:40;102373.0;;;12.93;62.39
77749;BME280;66938;52.084;5.228;2023-06-04T01:35:17;102380.0;;;12.89;61.97
77749;BME280;66938;52.084;5.228;2023-06-04T01:36:53;102377.0;;;12.87;62.08
77749;BME280;66938;52.084;5.228;2023-06-04T01:40:06;102375.0;;;12.8;61.87
77749;BME280;66938;52.084;5.228;2023-06-04T01:41:43;102373.0;;;12.81;62.43
77749;BME280;66938;52.084;5.228;2023-06-04T01:43:20;102371.0;;;12.74;62.18
77749;BME280;66938;52.084;5.228;2023-06-04T01:46:33;102373.0;;;12.73;61.88
77749;BME280;66938;52.084;5.228;2023-06-04T01:48:09;102369.0;;;12.68;62.66
77749;BME280;66938;52.084;5.228;2023-06-04T01:49:45;102369.0;;;12.66;62.54
77749;BME280;66938;52.084;5.228;2023-06-04T01:51:22;102372.0;;;12.65;62.65
77749;BME280;66938;52.084;5.228;2023-06-04T01:54:35;102367.0;;;12.67;62.9
77749;BME280;66938;52.084;5.228;2023-06-04T01:56:12;102369.0;;;12.6;62.97
77749;BME280;66938;52.084;5.228;2023-06-04T01:57:48;102366.0;;;12.6;62.95
77749;BME280;66938;52.084;5.228;2023-06-04T02:01:00;102370.0;;;12.57;62.97
77749;BME280;66938;52.084;5.228;2023-06-04T02:02:37;102373.0;;;12.54;63.04
77749;BME280;66938;52.084;5.228;2023-06-04T02:04:14;102373.0;;;12.52;62.86
77749;BME280;66938;52.084;5.228;2023-06-04T02:07:27;102374.0;;;12.45;63.93
77749;BME280;66938;52.084;5.228;2023-06-04T02:09:03;102373.0;;;12.4;64.14
77749;BME280;66938;52.084;5.228;2023-06-04T02:10:39;102373.0;;;12.4;64.08
77749;BME280;66938;52.084;5.228;2023-06-04T02:12:15;102377.0;;;12.37;63.57
77749;BME280;66938;52.084;5.228;2023-06-04T02:15:30;102375.0;;;12.36;63.83
77749;BME280;66938;52.084;5.228;2023-06-04T02:17:07;102370.0;;;12.4;63.65
77749;BME280;66938;52.084;5.228;2023-06-04T02:18:43;102374.0;;;12.37;63.48
77749;BME280;66938;52.084;5.228;2023-06-04T02:21:56;102374.0;;;12.34;64.35
77749;BME280;66938;52.084;5.228;2023-06-04T02:25:10;102370.0;;;12.32;63.83
77749;BME280;66938;52.084;5.228;2023-06-04T02:28:22;102373.0;;;12.27;64.16
77749;BME280;66938;52.084;5.228;2023-06-04T02:29:58;102372.0;;;12.19;64.59
77749;BME280;66938;52.084;5.228;2023-06-04T02:31:35;102373.0;;;12.22;63.82
77749;BME280;66938;52.084;5.228;2023-06-04T02:33:11;102372.0;;;12.17;64.27
77749;BME280;66938;52.084;5.228;2023-06-04T02:36:23;102374.0;;;12.17;64.16
77749;BME280;66938;52.084;5.228;2023-06-04T02:37:59;102374.0;;;12.11;64.05
77749;BME280;66938;52.084;5.228;2023-06-04T02:39:35;102371.0;;;12.12;64.35
77749;BME280;66938;52.084;5.228;2023-06-04T02:42:48;102366.0;;;12.17;63.7
77749;BME280;66938;52.084;5.228;2023-06-04T02:44:24;102371.0;;;12.12;63.76
77749;BME280;66938;52.084;5.228;2023-06-04T02:46:00;102370.0;;;12.09;64.17
77749;BME280;66938;52.084;5.228;2023-06-04T02:49:14;102374.0;;;12.04;64.89
77749;BME280;66938;52.084;5.228;2023-06-04T02:50:50;102372.0;;;12.04;64.58
77749;BME280;66938;52.084;5.228;2023-06-04T02:52:26;102373.0;;;12.07;64.77
77749;BME280;66938;52.084;5.228;2023-06-04T02:55:39;102374.0;;;11.95;64.03
77749;BME280;66938;52.084;5.228;2023-06-04T02:57:15;102375.0;;;11.95;64.73
77749;BME280;66938;52.084;5.228;2023-06-04T02:58:52;102369.0;;;11.9;64.67
77749;BME280;66938;52.084;5.228;2023-06-04T03:00:28;102369.0;;;11.97;64.87
77749;BME280;66938;52.084;5.228;2023-06-04T03:03:42;102372.0;;;11.95;64.74
77749;BME280;66938;52.084;5.228;2023-06-04T03:05:18;102366.0;;;11.93;64.89
77749;BME280;66938;52.084;5.228;2023-06-04T03:10:07;102363.0;;;11.96;64.27
77749;BME280;66938;52.084;5.228;2023-06-04T03:11:43;102358.0;;;11.98;64.64
77749;BME280;66938;52.084;5.228;2023-06-04T03:13:19;102358.0;;;11.98;64.45
77749;BME280;66938;52.084;5.228;2023-06-04T03:16:32;102364.0;;;12.02;64.69
77749;BME280;66938;52.084;5.228;2023-06-04T03:18:08;102365.0;;;12.04;64.56
77749;BME280;66938;52.084;5.228;2023-06-04T03:19:44;102366.0;;;11.93;64.67
77749;BME280;66938;52.084;5.228;2023-06-04T03:21:20;102366.0;;;11.87;64.94
77749;BME280;66938;52.084;5.228;2023-06-04T03:24:33;102358.0;;;11.99;63.91
77749;BME280;66938;52.084;5.228;2023-06-04T03:26:11;102361.0;;;11.94;63.85
77749;BME280;66938;52.084;5.228;2023-06-04T03:27:47;102367.0;;;11.92;63.76
77749;BME280;66938;52.084;5.228;2023-06-04T03:30:59;102372.0;;;11.88;64.19
77749;BME280;66938;52.084;5.228;2023-06-04T03:32:36;102368.0;;;11.92;64.12
77749;BME280;66938;52.084;5.228;2023-06-04T03:34:12;102372.0;;;11.92;63.74
77749;BME280;66938;52.084;5.228;2023-06-04T03:37:27;102372.0;;;11.86;63.96
77749;BME280;66938;52.084;5.228;2023-06-04T03:39:03;102371.0;;;11.89;64.41
77749;BME280;66938;52.084;5.228;2023-06-04T03:40:39;102370.0;;;11.92;63.8
77749;BME280;66938;52.084;5.228;2023-06-04T03:42:15;102368.0;;;11.91;64.1
77749;BME280;66938;52.084;5.228;2023-06-04T03:45:27;102369.0;;;11.88;64.44
77749;BME280;66938;52.084;5.228;2023-06-04T03:47:04;102367.0;;;11.96;64.05
77749;BME280;66938;52.084;5.228;2023-06-04T03:48:40;102371.0;;;11.96;64.44
77749;BME280;66938;52.084;5.228;2023-06-04T03:51:55;102369.0;;;11.91;64.72
77749;BME280;66938;52.084;5.228;2023-06-04T03:53:31;102375.0;;;11.86;64.7
77749;BME280;66938;52.084;5.228;2023-06-04T03:55:08;102374.0;;;11.91;64.8
77749;BME280;66938;52.084;5.228;2023-06-04T03:58:20;102369.0;;;11.84;65.38
77749;BME280;66938;52.084;5.228;2023-06-04T03:59:57;102369.0;;;11.85;65.17
77749;BME280;66938;52.084;5.228;2023-06-04T04:01:33;102376.0;;;11.79;65.02
77749;BME280;66938;52.084;5.228;2023-06-04T04:03:09;102370.0;;;11.81;65.91
77749;BME280;66938;52.084;5.228;2023-06-04T04:06:22;102376.0;;;11.8;65.28
77749;BME280;66938;52.084;5.228;2023-06-04T04:07:58;102369.0;;;11.75;65.58
77749;BME280;66938;52.084;5.228;2023-06-04T04:09:34;102376.0;;;11.75;65.72
77749;BME280;66938;52.084;5.228;2023-06-04T04:12:49;102372.0;;;11.77;65.2
77749;BME280;66938;52.084;5.228;2023-06-04T04:14:25;102377.0;;;11.82;65.64
77749;BME280;66938;52.084;5.228;2023-06-04T04:16:01;102376.0;;;11.73;66.13
77749;BME280;66938;52.084;5.228;2023-06-04T04:19:13;102376.0;;;11.74;65.83
77749;BME280;66938;52.084;5.228;2023-06-04T04:20:49;102376.0;;;11.7;66.48
77749;BME280;66938;52.084;5.228;2023-06-04T04:22:26;102380.0;;;11.77;66.19
77749;BME280;66938;52.084;5.228;2023-06-04T04:24:02;102382.0;;;11.84;65.88
77749;BME280;66938;52.084;5.228;2023-06-04T04:27:15;102381.0;;;11.83;66.47
77749;BME280;66938;52.084;5.228;2023-06-04T04:28:51;102374.0;;;11.86;67.08
77749;BME280;66938;52.084;5.228;2023-06-04T04:30:27;102374.0;;;11.9;66.55
77749;BME280;66938;52.084;5.228;2023-06-04T04:33:40;102374.0;;;11.94;66.62
77749;BME280;66938;52.084;5.228;2023-06-04T04:35:17;102376.0;;;11.9;66.61
77749;BME280;66938;52.084;5.228;2023-06-04T04:36:53;102373.0;;;11.93;67.02
77749;BME280;66938;52.084;5.228;2023-06-04T04:40:07;102378.0;;;11.94;67.24
77749;BME280;66938;52.084;5.228;2023-06-04T04:41:44;102371.0;;;11.97;66.88
77749;BME280;66938;52.084;5.228;2023-06-04T04:43:28;102377.0;;;11.96;67.22
77749;BME280;66938;52.084;5.228;2023-06-04T04:45:07;102377.0;;;11.99;66.94
77749;BME280;66938;52.084;5.228;2023-06-04T04:48:19;102381.0;;;12.02;67.16
77749;BME280;66938;52.084;5.228;2023-06-04T04:49:55;102385.0;;;12.08;67.02
77749;BME280;66938;52.084;5.228;2023-06-04T04:54:45;102374.0;;;12.18;67.39
77749;BME280;66938;52.084;5.228;2023-06-04T04:56:21;102375.0;;;12.23;67.67
77749;BME280;66938;52.084;5.228;2023-06-04T04:57:58;102380.0;;;12.25;67.69
77749;BME280;66938;52.084;5.228;2023-06-04T05:01:10;102375.0;;;12.33;67.23
77749;BME280;66938;52.084;5.228;2023-06-04T05:02:47;102372.0;;;12.4;67.53
77749;BME280;66938;52.084;5.228;2023-06-04T05:04:23;102376.0;;;12.45;67.61
77749;BME280;66938;52.084;5.228;2023-06-04T05:05:59;102374.0;;;12.46;67.25
77749;BME280;66938;52.084;5.228;2023-06-04T05:09:11;102372.0;;;12.5;67.12
77749;BME280;66938;52.084;5.228;2023-06-04T05:10:48;102376.0;;;12.53;67.55
77749;BME280;66938;52.084;5.228;2023-06-04T05:12:26;102377.0;;;12.53;67.66
77749;BME280;66938;52.084;5.228;2023-06-04T05:15:38;102378.0;;;12.58;67.94
77749;BME280;66938;52.084;5.228;2023-06-04T05:17:14;102377.0;;;12.62;67.98
77749;BME280;66938;52.084;5.228;2023-06-04T05:18:50;102377.0;;;12.67;67.74
77749;BME280;66938;52.084;5.228;2023-06-04T05:22:03;102381.0;;;12.71;68.31
77749;BME280;66938;52.084;5.228;2023-06-04T05:23:40;102380.0;;;12.78;67.99
77749;BME280;66938;52.084;5.228;2023-06-04T05:25:16;102380.0;;;12.77;67.73
77749;BME280;66938;52.084;5.228;2023-06-04T05:26:53;102375.0;;;12.81;67.8
77749;BME280;66938;52.084;5.228;2023-06-04T05:30:06;102372.0;;;12.89;67.77
77749;BME280;66938;52.084;5.228;2023-06-04T05:31:45;102376.0;;;12.99;67.33
77749;BME280;66938;52.084;5.228;2023-06-04T05:33:21;102374.0;;;13.02;66.78
77749;BME280;66938;52.084;5.228;2023-06-04T05:36:35;102376.0;;;13.09;66.85
77749;BME280;66938;52.084;5.228;2023-06-04T05:38:11;102378.0;;;13.14;66.56
77749;BME280;66938;52.084;5.228;2023-06-04T05:39:47;102381.0;;;13.17;66.35
77749;BME280;66938;52.084;5.228;2023-06-04T05:43:00;102381.0;;;13.22;67.16
77749;BME280;66938;52.084;5.228;2023-06-04T05:44:37;102382.0;;;13.24;67.23
77749;BME280;66938;52.084;5.228;2023-06-04T05:46:13;102382.0;;;13.31;66.7
77749;BME280;66938;52.084;5.228;2023-06-04T05:47:49;102381.0;;;13.36;66.22
77749;BME280;66938;52.084;5.228;2023-06-04T05:51:01;102381.0;;;13.45;66.91
77749;BME280;66938;52.084;5.228;2023-06-04T05:52:37;102381.0;;;13.46;66.55
77749;BME280;66938;52.084;5.228;2023-06-04T05:54:14;102382.0;;;13.5;67.05
77749;BME280;66938;52.084;5.228;2023-06-04T05:57:26;102383.0;;;13.56;66.31
77749;BME280;66938;52.084;5.228;2023-06-04T05:59:02;102387.0;;;13.54;65.95
77749;BME280;66938;52.084;5.228;2023-06-04T06:00:38;102388.0;;;13.62;66.09
77749;BME280;66938;52.084;5.228;2023-06-04T06:03:51;102388.0;;;13.69;66.7
77749;BME280;66938;52.084;5.228;2023-06-04T06:05:28;102386.0;;;13.72;66.99
77749;BME280;66938;52.084;5.228;2023-06-04T06:07:04;102385.0;;;13.8;66.11
77749;BME280;66938;52.084;5.228;2023-06-04T06:08:40;102389.0;;;13.89;65.72
77749;BME280;66938;52.084;5.228;2023-06-04T06:11:52;102387.0;;;13.9;65.38
77749;BME280;66938;52.084;5.228;2023-06-04T06:13:28;102386.0;;;13.97;65.81
77749;BME280;66938;52.084;5.228;2023-06-04T06:15:06;102389.0;;;14.05;65.7
77749;BME280;66938;52.084;5.228;2023-06-04T06:18:19;102392.0;;;14.11;65.5
77749;BME280;66938;52.084;5.228;2023-06-04T06:19:55;102387.0;;;14.16;65.52
77749;BME280;66938;52.084;5.228;2023-06-04T06:21:32;102390.0;;;14.14;66.83
77749;BME280;66938;52.084;5.228;2023-06-04T06:24:44;102385.0;;;14.26;66.77
77749;BME280;66938;52.084;5.228;2023-06-04T06:26:21;102386.0;;;14.34;66.02
77749;BME280;66938;52.084;5.228;2023-06-04T06:27:57;102385.0;;;14.44;65.61
77749;BME280;66938;52.084;5.228;2023-06-04T06:29:33;102391.0;;;14.5;65.67
77749;BME280;66938;52.084;5.228;2023-06-04T06:32:46;102385.0;;;14.54;65.27
77749;BME280;66938;52.084;5.228;2023-06-04T06:34:23;102386.0;;;14.62;64.59
77749;BME280;66938;52.084;5.228;2023-06-04T06:35:59;102389.0;;;14.72;64.22
77749;BME280;66938;52.084;5.228;2023-06-04T06:39:12;102395.0;;;14.75;65.13
77749;BME280;66938;52.084;5.228;2023-06-04T06:40:49;102390.0;;;14.78;64.35
77749;BME280;66938;52.084;5.228;2023-06-04T06:42:26;102390.0;;;14.89;63.65
77749;BME280;66938;52.084;5.228;2023-06-04T06:45:38;102389.0;;;14.97;63.73
77749;BME280;66938;52.084;5.228;2023-06-04T06:47:14;102392.0;;;15.02;62.9
77749;BME280;66938;52.084;5.228;2023-06-04T06:48:51;102386.0;;;15.07;63.45
77749;BME280;66938;52.084;5.228;2023-06-04T06:50:28;102388.0;;;15.21;63.53
77749;BME280;66938;52.084;5.228;2023-06-04T06:53:41;102385.0;;;15.23;62.35
77749;BME280;66938;52.084;5.228;2023-06-04T06:55:17;102391.0;;;15.36;61.77
77749;BME280;66938;52.084;5.228;2023-06-04T06:56:53;102396.0;;;15.4;61.61
77749;BME280;66938;52.084;5.228;2023-06-04T07:00:07;102398.0;;;15.48;62.7
77749;BME280;66938;52.084;5.228;2023-06-04T07:01:44;102398.0;;;15.6;61.72
77749;BME280;66938;52.084;5.228;2023-06-04T07:03:20;102400.0;;;15.69;60.58
77749;BME280;66938;52.084;5.228;2023-06-04T07:06:33;102399.0;;;15.73;60.87
77749;BME280;66938;52.084;5.228;2023-06-04T07:08:10;102400.0;;;15.83;61.23
77749;BME280;66938;52.084;5.228;2023-06-04T07:09:46;102400.0;;;15.95;60.73
77749;BME280;66938;52.084;5.228;2023-06-04T07:12:58;102404.0;;;16.04;60.82
77749;BME280;66938;52.084;5.228;2023-06-04T07:14:35;102407.0;;;16.09;61.25
77749;BME280;66938;52.084;5.228;2023-06-04T07:16:12;102408.99999999999;;;16.13;61.36
77749;BME280;66938;52.084;5.228;2023-06-04T07:17:49;102413.00000000001;;;16.25;61.22
77749;BME280;66938;52.084;5.228;2023-06-04T07:21:01;102416.00000000001;;;16.25;61.93
77749;BME280;66938;52.084;5.228;2023-06-04T07:22:37;102418.0;;;16.36;61.55
77749;BME280;66938;52.084;5.228;2023-06-04T07:24:14;102418.0;;;16.4;59.99
77749;BME280;66938;52.084;5.228;2023-06-04T07:27:27;102417.0;;;16.5;60.0
77749;BME280;66938;52.084;5.228;2023-06-04T07:29:03;102418.0;;;16.52;58.67
77749;BME280;66938;52.084;5.228;2023-06-04T07:30:39;102416.00000000001;;;16.54;60.83
77749;BME280;66938;52.084;5.228;2023-06-04T07:33:51;102413.00000000001;;;16.61;60.02
77749;BME280;66938;52.084;5.228;2023-06-04T07:35:28;102408.99999999999;;;16.7;58.69
77749;BME280;66938;52.084;5.228;2023-06-04T07:37:04;102408.99999999999;;;16.81;58.68
77749;BME280;66938;52.084;5.228;2023-06-04T07:38:41;102411.99999999999;;;16.86;57.03
77749;BME280;66938;52.084;5.228;2023-06-04T07:41:55;102411.99999999999;;;16.91;56.78
77749;BME280;66938;52.084;5.228;2023-06-04T07:43:33;102411.99999999999;;;16.95;56.48
77749;BME280;66938;52.084;5.228;2023-06-04T07:45:10;102416.00000000001;;;17.04;55.57
77749;BME280;66938;52.084;5.228;2023-06-04T07:48:23;102416.00000000001;;;17.18;56.42
77749;BME280;66938;52.084;5.228;2023-06-04T07:50:00;102413.00000000001;;;17.21;57.28
77749;BME280;66938;52.084;5.228;2023-06-04T07:51:36;102415.00000000001;;;17.27;55.92
77749;BME280;66938;52.084;5.228;2023-06-04T07:53:13;102408.99999999999;;;17.36;55.51
77749;BME280;66938;52.084;5.228;2023-06-04T07:56:26;102411.99999999999;;;17.43;55.46
77749;BME280;66938;52.084;5.228;2023-06-04T07:58:02;102411.99999999999;;;17.47;56.52
77749;BME280;66938;52.084;5.228;2023-06-04T07:59:38;102411.99999999999;;;17.56;54.79
77749;BME280;66938;52.084;5.228;2023-06-04T08:02:50;102408.99999999999;;;17.59;54.93
77749;BME280;66938;52.084;5.228;2023-06-04T08:04:28;102408.0;;;17.64;55.12
77749;BME280;66938;52.084;5.228;2023-06-04T08:06:04;102407.0;;;17.77;53.15
77749;BME280;66938;52.084;5.228;2023-06-04T08:09:18;102411.99999999999;;;17.82;53.57
77749;BME280;66938;52.084;5.228;2023-06-04T08:10:54;102413.00000000001;;;17.84;54.78
77749;BME280;66938;52.084;5.228;2023-06-04T08:12:31;102414.00000000001;;;17.8;52.04
77749;BME280;66938;52.084;5.228;2023-06-04T08:15:44;102417.0;;;17.95;50.6
77749;BME280;66938;52.084;5.228;2023-06-04T08:17:20;102416.00000000001;;;18.02;52.44
77749;BME280;66938;52.084;5.228;2023-06-04T08:18:56;102416.00000000001;;;18.07;52.24
77749;BME280;66938;52.084;5.228;2023-06-04T08:20:33;102413.00000000001;;;18.14;51.5
77749;BME280;66938;52.084;5.228;2023-06-04T08:23:46;102414.00000000001;;;18.16;53.67
77749;BME280;66938;52.084;5.228;2023-06-04T08:25:22;102415.00000000001;;;18.18;51.62
77749;BME280;66938;52.084;5.228;2023-06-04T08:26:58;102415.00000000001;;;18.11;52.58
77749;BME280;66938;52.084;5.228;2023-06-04T08:30:11;102417.0;;;18.27;51.94
77749;BME280;66938;52.084;5.228;2023-06-04T08:31:47;102417.0;;;18.28;51.8
77749;BME280;66938;52.084;5.228;2023-06-04T08:33:24;102423.0;;;18.36;50.91
77749;BME280;66938;52.084;5.228;2023-06-04T08:36:36;102418.0;;;18.43;51.73
77749;BME280;66938;52.084;5.228;2023-06-04T08:38:12;102421.0;;;18.5;50.51
77749;BME280;66938;52.084;5.228;2023-06-04T08:39:48;102418.0;;;18.54;49.71
77749;BME280;66938;52.084;5.228;2023-06-04T08:41:28;102415.00000000001;;;18.62;50.04
77749;BME280;66938;52.084;5.228;2023-06-04T08:44:41;102416.00000000001;;;18.71;51.2
77749;BME280;66938;52.084;5.228;2023-06-04T08:46:19;102413.00000000001;;;18.81;49.77
77749;BME280;66938;52.084;5.228;2023-06-04T08:47:57;102418.0;;;18.86;49.84
77749;BME280;66938;52.084;5.228;2023-06-04T08:51:13;102414.00000000001;;;18.86;50.53
77749;BME280;66938;52.084;5.228;2023-06-04T08:52:52;102419.0;;;18.98;50.03
77749;BME280;66938;52.084;5.228;2023-06-04T08:54:29;102418.0;;;19.03;49.12
77749;BME280;66938;52.084;5.228;2023-06-04T08:56:06;102425.0;;;18.93;48.95
77749;BME280;66938;52.084;5.228;2023-06-04T08:59:19;102429.0;;;19.04;47.01
77749;BME280;66938;52.084;5.228;2023-06-04T09:00:56;102429.0;;;19.04;49.21
77749;BME280;66938;52.084;5.228;2023-06-04T09:02:33;102427.0;;;19.18;46.61
77749;BME280;66938;52.084;5.228;2023-06-04T09:05:48;102426.0;;;19.27;44.9
77749;BME280;66938;52.084;5.228;2023-06-04T09:07:25;102420.0;;;19.27;47.93
77749;BME280;66938;52.084;5.228;2023-06-04T09:09:04;102424.0;;;19.3;47.68
77749;BME280;66938;52.084;5.228;2023-06-04T09:10:46;102422.0;;;19.36;48.66
77749;BME280;66938;52.084;5.228;2023-06-04T09:14:04;102418.0;;;19.41;45.78
77749;BME280;66938;52.084;5.228;2023-06-04T09:15:43;102418.0;;;19.54;46.25
77749;BME280;66938;52.084;5.228;2023-06-04T09:17:21;102416.00000000001;;;19.61;47.93
77749;BME280;66938;52.084;5.228;2023-06-04T09:19:00;102418.0;;;19.75;47.76
77749;BME280;66938;52.084;5.228;2023-06-04T09:22:14;102416.00000000001;;;19.68;45.17
77749;BME280;66938;52.084;5.228;2023-06-04T09:23:50;102417.0;;;19.75;43.03
77749;BME280;66938;52.084;5.228;2023-06-04T09:25:27;102420.0;;;19.86;43.24
77749;BME280;66938;52.084;5.228;2023-06-04T09:28:47;102418.0;;;19.96;44.69
77749;BME280;66938;52.084;5.228;2023-06-04T09:30:23;102420.0;;;20.0;42.68
77749;BME280;66938;52.084;5.228;2023-06-04T09:32:00;102419.0;;;20.21;42.72
77749;BME280;66938;52.084;5.228;2023-06-04T09:35:20;102418.0;;;20.27;44.4
77749;BME280;66938;52.084;5.228;2023-06-04T09:36:57;102418.0;;;20.34;42.72
77749;BME280;66938;52.084;5.228;2023-06-04T09:38:34;102418.0;;;20.43;42.99
77749;BME280;66938;52.084;5.228;2023-06-04T09:40:11;102421.0;;;20.45;43.98
77749;BME280;66938;52.084;5.228;2023-06-04T09:43:34;102417.0;;;20.53;44.56
77749;BME280;66938;52.084;5.228;2023-06-04T09:45:11;102419.0;;;20.58;41.92
77749;BME280;66938;52.084;5.228;2023-06-04T09:46:53;102425.0;;;20.53;42.08
77749;BME280;66938;52.084;5.228;2023-06-04T09:48:29;102421.0;;;20.63;41.54
77749;BME280;66938;52.084;5.228;2023-06-04T09:51:47;102414.00000000001;;;20.54;42.58
77749;BME280;66938;52.084;5.228;2023-06-04T09:53:24;102419.0;;;20.67;42.05
77749;BME280;66938;52.084;5.228;2023-06-04T09:55:00;102422.0;;;20.65;41.37
77749;BME280;66938;52.084;5.228;2023-06-04T09:58:16;102425.0;;;20.66;42.26
77749;BME280;66938;52.084;5.228;2023-06-04T09:59:53;102411.99999999999;;;20.76;39.94
77749;BME280;66938;52.084;5.228;2023-06-04T10:01:30;102413.00000000001;;;20.78;40.89
77749;BME280;66938;52.084;5.228;2023-06-04T10:03:09;102417.0;;;20.77;41.22
77749;BME280;66938;52.084;5.228;2023-06-04T10:06:33;102415.00000000001;;;20.78;40.56
77749;BME280;66938;52.084;5.228;2023-06-04T10:08:12;102416.00000000001;;;20.86;40.81
77749;BME280;66938;52.084;5.228;2023-06-04T10:09:53;102414.00000000001;;;20.83;40.24
77749;BME280;66938;52.084;5.228;2023-06-04T10:11:34;102417.0;;;20.89;39.81
77749;BME280;66938;52.084;5.228;2023-06-04T10:14:56;102415.00000000001;;;20.85;39.35
77749;BME280;66938;52.084;5.228;2023-06-04T10:16:37;102413.00000000001;;;21.0;39.9
77749;BME280;66938;52.084;5.228;2023-06-04T10:18:14;102414.00000000001;;;21.01;39.06
77749;BME280;66938;52.084;5.228;2023-06-04T10:19:51;102415.00000000001;;;21.08;41.18
77749;BME280;66938;52.084;5.228;2023-06-04T10:23:08;102408.0;;;21.19;39.1
77749;BME280;66938;52.084;5.228;2023-06-04T10:24:45;102407.0;;;21.2;37.89
77749;BME280;66938;52.084;5.228;2023-06-04T10:26:22;102403.0;;;21.24;37.15
77749;BME280;66938;52.084;5.228;2023-06-04T10:29:37;102403.0;;;21.31;37.72
77749;BME280;66938;52.084;5.228;2023-06-04T10:31:15;102405.0;;;21.36;39.14
77749;BME280;66938;52.084;5.228;2023-06-04T10:32:52;102405.0;;;21.41;39.03
77749;BME280;66938;52.084;5.228;2023-06-04T10:34:29;102407.0;;;21.46;37.9
77749;BME280;66938;52.084;5.228;2023-06-04T10:38:05;102405.0;;;21.42;37.74
77749;BME280;66938;52.084;5.228;2023-06-04T10:39:50;102408.99999999999;;;21.49;39.51
77749;BME280;66938;52.084;5.228;2023-06-04T10:41:27;102403.0;;;21.36;36.64
77749;BME280;66938;52.084;5.228;2023-06-04T10:43:04;102405.0;;;21.61;39.53
77749;BME280;66938;52.084;5.228;2023-06-04T10:46:23;102404.0;;;21.66;40.49
77749;BME280;66938;52.084;5.228;2023-06-04T10:48:00;102406.0;;;21.68;38.53
77749;BME280;66938;52.084;5.228;2023-06-04T10:49:36;102400.0;;;21.68;38.24
77749;BME280;66938;52.084;5.228;2023-06-04T10:51:12;102406.0;;;21.72;38.74
77749;BME280;66938;52.084;5.228;2023-06-04T10:54:29;102405.0;;;21.83;39.42
77749;BME280;66938;52.084;5.228;2023-06-04T10:56:05;102407.0;;;21.76;41.17
77749;BME280;66938;52.084;5.228;2023-06-04T10:57:51;102408.0;;;21.97;38.31
77749;BME280;66938;52.084;5.228;2023-06-04T10:59:27;102405.0;;;22.04;39.53